Time;durP1;ratioP1;P1;durP2;ratioP2;P2;SDS_P1;SDS_P2;PMS_P1;PMS_P2;Temp;Humidity;BMP_temperature;BMP_pressure;BME280_temperature;BME280_humidity;BME280_pressure;Samples;Min_cycle;Max_cycle;Signal;HPM_P1;HPM_P2
2022/04/03 00:02:03;;;;;;;5.30;1.77;;;3.30;91.60;;;;;;7344874;19;109488;-93
2022/04/03 00:04:30;;;;;;;3.10;1.60;;;3.20;91.50;;;;;;7342388;19;108360;-93
2022/04/03 00:06:59;;;;;;;4.67;1.70;;;3.20;91.60;;;;;;7343809;19;109413;-93
2022/04/03 00:09:26;;;;;;;3.00;1.70;;;3.20;91.50;;;;;;7348725;19;109966;-93
2022/04/03 00:11:54;;;;;;;3.10;1.70;;;3.20;91.60;;;;;;7344924;19;112061;-93
2022/04/03 00:14:21;;;;;;;4.90;1.97;;;3.10;91.50;;;;;;7343891;19;111509;-93
2022/04/03 00:16:48;;;;;;;3.03;1.73;;;3.10;91.70;;;;;;7344982;19;108500;-93
2022/04/03 00:19:16;;;;;;;4.87;2.40;;;3.00;91.70;;;;;;7345933;19;109002;-92
2022/04/03 00:21:43;;;;;;;6.50;2.43;;;3.00;91.80;;;;;;7345630;19;110152;-92
2022/04/03 00:24:10;;;;;;;6.70;2.30;;;3.00;91.90;;;;;;7345836;19;108250;-92
2022/04/03 00:26:37;;;;;;;5.93;2.87;;;2.90;91.70;;;;;;7345727;19;109410;-93
2022/04/03 00:29:04;;;;;;;6.20;2.50;;;2.90;91.80;;;;;;7345273;19;112651;-93
2022/04/03 00:31:31;;;;;;;8.73;3.20;;;2.90;91.60;;;;;;7349246;19;108651;-94
2022/04/03 00:33:59;;;;;;;8.90;3.33;;;2.90;91.70;;;;;;7345279;19;110677;-93
2022/04/03 00:36:26;;;;;;;6.23;3.07;;;2.80;91.90;;;;;;7345767;19;108374;-92
2022/04/03 00:38:53;;;;;;;8.83;3.20;;;2.70;92.00;;;;;;7342770;19;108746;-93
2022/04/03 00:41:22;;;;;;;9.53;2.77;;;2.70;92.00;;;;;;7346003;19;110216;-94
2022/04/03 00:43:49;;;;;;;6.33;2.70;;;2.60;92.10;;;;;;7344613;19;108295;-94
2022/04/03 00:46:19;;;;;;;5.37;3.00;;;2.60;92.00;;;;;;7344215;19;108551;-93
2022/04/03 00:48:47;;;;;;;6.70;2.87;;;2.60;92.00;;;;;;7344647;19;109969;-92
2022/04/03 00:51:15;;;;;;;5.80;2.77;;;2.60;92.00;;;;;;7354004;19;108944;-93
2022/04/03 00:53:42;;;;;;;6.13;2.93;;;2.50;92.30;;;;;;7350675;19;112752;-94
2022/04/03 00:56:09;;;;;;;5.83;2.27;;;2.40;92.10;;;;;;7351565;19;108738;-94
2022/04/03 00:58:38;;;;;;;7.17;2.60;;;2.40;92.30;;;;;;7348055;19;108504;-93
2022/04/03 01:01:05;;;;;;;5.53;2.50;;;2.40;92.20;;;;;;7349081;19;109142;-93
2022/04/03 01:03:32;;;;;;;6.50;2.63;;;2.40;92.30;;;;;;7350426;19;110601;-95
2022/04/03 01:06:00;;;;;;;6.77;2.90;;;2.40;92.20;;;;;;7349534;19;109667;-93
2022/04/03 01:08:27;;;;;;;4.97;2.80;;;2.40;92.20;;;;;;7349170;19;109955;-93
2022/04/03 01:10:55;;;;;;;7.80;2.60;;;2.30;92.20;;;;;;7351383;19;109668;-93
2022/04/03 01:13:22;;;;;;;6.87;2.90;;;2.30;92.20;;;;;;7355863;19;108759;-92
2022/04/03 01:15:54;;;;;;;4.93;2.03;;;2.30;92.60;;;;;;7348603;19;108581;-93
2022/04/03 01:18:23;;;;;;;7.50;2.67;;;2.20;92.60;;;;;;7350946;19;109794;-93
2022/04/03 01:20:52;;;;;;;8.37;2.87;;;2.10;92.60;;;;;;7347312;19;109466;-93
2022/04/03 01:23:25;;;;;;;6.60;2.37;;;2.10;92.60;;;;;;7349990;19;110546;-93
2022/04/03 01:25:52;;;;;;;5.07;2.40;;;2.10;92.60;;;;;;7351528;19;109841;-93
2022/04/03 01:28:19;;;;;;;3.67;2.23;;;2.10;92.40;;;;;;7350647;19;108555;-93
2022/04/03 01:30:47;;;;;;;6.00;2.60;;;2.10;92.40;;;;;;7350276;19;111278;-94
2022/04/03 01:33:15;;;;;;;6.33;2.43;;;2.10;92.30;;;;;;7349949;19;108708;-93
2022/04/03 01:35:44;;;;;;;7.90;3.00;;;2.10;92.30;;;;;;7353236;19;109371;-94
2022/04/03 01:38:11;;;;;;;8.00;3.23;;;2.00;92.60;;;;;;7349511;19;108731;-94
2022/04/03 01:40:38;;;;;;;6.27;3.10;;;1.90;92.50;;;;;;7348616;19;112559;-93
2022/04/03 01:43:07;;;;;;;10.33;3.67;;;1.80;92.80;;;;;;7348593;19;108289;-93
2022/04/03 01:45:35;;;;;;;8.73;3.50;;;1.80;92.40;;;;;;7350856;19;108815;-93
2022/04/03 01:48:04;;;;;;;7.30;2.90;;;1.80;92.40;;;;;;7347069;19;111207;-94
2022/04/03 01:50:31;;;;;;;4.93;2.33;;;1.80;92.50;;;;;;7347125;19;108271;-93
2022/04/03 01:52:58;;;;;;;7.90;2.30;;;1.70;92.60;;;;;;7348361;19;109789;-93
2022/04/03 01:55:26;;;;;;;4.83;2.97;;;1.70;92.60;;;;;;7349067;19;109371;-93
2022/04/03 01:57:54;;;;;;;9.07;3.43;;;1.70;92.50;;;;;;7353878;19;109591;-93
2022/04/03 02:00:21;;;;;;;7.73;2.77;;;1.60;92.50;;;;;;7346993;19;110254;-93
2022/04/03 02:02:50;;;;;;;6.40;2.50;;;1.60;92.60;;;;;;7347479;19;109204;-93
2022/04/03 02:05:18;;;;;;;6.43;2.70;;;1.50;92.60;;;;;;7346430;19;108686;-93
2022/04/03 02:07:45;;;;;;;8.50;2.73;;;1.50;92.60;;;;;;7348815;19;108511;-93
2022/04/03 02:10:12;;;;;;;4.90;2.43;;;1.40;92.60;;;;;;7346918;19;109915;-92
2022/04/03 02:12:40;;;;;;;5.03;2.43;;;1.40;92.60;;;;;;7348471;19;109561;-93
2022/04/03 02:15:11;;;;;;;5.27;2.77;;;1.40;92.80;;;;;;7349678;19;109188;-90
2022/04/03 02:17:41;;;;;;;5.23;2.50;;;1.40;92.80;;;;;;7349301;19;108438;-92
2022/04/03 02:20:10;;;;;;;5.00;2.60;;;1.30;92.70;;;;;;7351952;19;110921;-92
2022/04/03 02:22:37;;;;;;;4.47;2.20;;;1.20;92.70;;;;;;7347003;19;108528;-92
2022/04/03 02:25:09;;;;;;;5.87;2.50;;;1.30;92.70;;;;;;7345870;19;109887;-92
2022/04/03 02:27:38;;;;;;;6.70;2.40;;;1.20;92.70;;;;;;7345173;19;110236;-92
2022/04/03 02:30:08;;;;;;;4.13;2.20;;;1.20;92.70;;;;;;7344079;19;109313;-91
2022/04/03 02:32:40;;;;;;;3.50;2.07;;;1.20;92.80;;;;;;7344783;19;109498;-91
2022/04/03 02:35:10;;;;;;;3.37;2.40;;;1.10;92.60;;;;;;7344999;19;113555;-92
2022/04/03 02:37:38;;;;;;;5.63;2.73;;;1.10;92.80;;;;;;7345249;19;108379;-92
2022/04/03 02:40:08;;;;;;;5.40;2.60;;;1.10;92.90;;;;;;7349024;19;109422;-92
2022/04/03 02:42:35;;;;;;;7.20;2.60;;;1.00;92.90;;;;;;7344764;19;108663;-92
2022/04/03 02:45:04;;;;;;;4.60;2.40;;;1.00;93.00;;;;;;7343137;19;110739;-92
2022/04/03 02:47:32;;;;;;;6.77;2.40;;;0.90;93.10;;;;;;7345251;19;110277;-91
2022/04/03 02:49:59;;;;;;;5.37;2.33;;;0.90;93.20;;;;;;7344306;19;108318;-91
2022/04/03 02:52:26;;;;;;;4.40;2.20;;;0.80;93.20;;;;;;7345541;19;109058;-92
2022/04/03 02:54:53;;;;;;;7.67;2.50;;;0.80;93.10;;;;;;7344979;19;109339;-91
2022/04/03 02:57:21;;;;;;;5.67;2.73;;;0.80;93.10;;;;;;7342474;19;109853;-91
2022/04/03 02:59:48;;;;;;;6.80;2.50;;;0.80;93.00;;;;;;7343841;19;109765;-91
2022/04/03 03:02:15;;;;;;;5.00;2.43;;;0.80;93.00;;;;;;7348830;19;108677;-91
2022/04/03 03:04:43;;;;;;;6.00;2.30;;;0.70;93.20;;;;;;7344828;19;109453;-92
2022/04/03 03:07:11;;;;;;;5.17;2.80;;;0.70;93.10;;;;;;7345430;19;110231;-91
2022/04/03 03:09:38;;;;;;;6.77;2.40;;;0.70;93.60;;;;;;7346095;19;108953;-91
2022/04/03 03:12:05;;;;;;;4.43;2.57;;;0.70;93.20;;;;;;7345214;19;111471;-90
2022/04/03 03:14:32;;;;;;;5.70;2.13;;;0.70;93.20;;;;;;7348137;19;110152;-90
2022/04/03 03:17:01;;;;;;;5.63;2.90;;;0.60;93.30;;;;;;7347831;19;108151;-90
2022/04/03 03:19:28;;;;;;;6.33;2.90;;;0.50;93.40;;;;;;7346922;19;109886;-90
2022/04/03 03:21:55;;;;;;;6.70;2.37;;;0.50;93.70;;;;;;7344874;19;109541;-90
2022/04/03 03:24:22;;;;;;;6.77;2.37;;;0.40;93.50;;;;;;7350565;19;108262;-90
2022/04/03 03:26:50;;;;;;;4.73;2.23;;;0.40;93.50;;;;;;7346953;19;110207;-90
2022/04/03 03:29:17;;;;;;;6.13;2.70;;;0.40;93.50;;;;;;7345063;19;108704;-90
2022/04/03 03:31:44;;;;;;;5.50;2.30;;;0.40;93.80;;;;;;7347329;19;109538;-90
2022/04/03 03:34:12;;;;;;;3.93;2.40;;;0.40;93.50;;;;;;7347102;19;110897;-90
2022/04/03 03:36:39;;;;;;;4.17;2.40;;;0.40;93.40;;;;;;7345980;19;108137;-90
2022/04/03 03:39:06;;;;;;;6.50;2.50;;;0.40;93.50;;;;;;7345570;19;109970;-90
2022/04/03 03:41:33;;;;;;;5.03;2.40;;;0.30;93.60;;;;;;7345984;19;109194;-91
2022/04/03 03:44:03;;;;;;;4.47;2.60;;;0.30;93.60;;;;;;7348162;19;108219;-90
2022/04/03 03:46:30;;;;;;;4.90;2.40;;;0.30;93.60;;;;;;7348887;19;109630;-91
2022/04/03 03:48:57;;;;;;;5.67;2.40;;;0.30;94.00;;;;;;7341803;19;108337;-91
2022/04/03 03:51:24;;;;;;;5.13;2.70;;;0.20;94.10;;;;;;7343612;19;112056;-91
2022/04/03 03:53:51;;;;;;;5.30;2.80;;;0.20;94.60;;;;;;7346619;19;109562;-91
2022/04/03 03:56:18;;;;;;;3.97;2.40;;;0.20;95.00;;;;;;7346844;19;109631;-92
2022/04/03 03:58:46;;;;;;;5.63;2.60;;;0.10;94.80;;;;;;7345017;19;109450;-91
2022/04/03 04:01:13;;;;;;;7.33;2.47;;;0.20;94.70;;;;;;7346560;19;109427;-91
2022/04/03 04:03:40;;;;;;;4.77;2.43;;;0.20;94.50;;;;;;7344728;19;108344;-90
2022/04/03 04:06:07;;;;;;;6.90;2.60;;;0.20;94.40;;;;;;7346092;19;108511;-91
2022/04/03 04:08:34;;;;;;;5.53;2.30;;;0.20;94.30;;;;;;7351435;19;109392;-91
2022/04/03 04:11:01;;;;;;;7.57;2.40;;;0.10;94.30;;;;;;7343585;19;110009;-91
2022/04/03 04:13:31;;;;;;;7.07;2.30;;;0.10;94.20;;;;;;7344678;19;109586;-91
2022/04/03 04:15:59;;;;;;;5.60;2.77;;;0.10;94.30;;;;;;7343990;19;108885;-91
2022/04/03 04:18:26;;;;;;;7.20;2.47;;;0.10;94.30;;;;;;7346262;19;108081;-90
2022/04/03 04:20:53;;;;;;;5.43;2.50;;;0.10;94.40;;;;;;7342801;19;110438;-90
2022/04/03 04:23:20;;;;;;;6.47;2.90;;;0.00;94.50;;;;;;7345687;19;108763;-90
2022/04/03 04:25:47;;;;;;;8.10;2.83;;;0.00;94.50;;;;;;7349794;19;110017;-90
2022/04/03 04:28:15;;;;;;;10.20;3.37;;;0.00;94.60;;;;;;7350927;19;110064;-91
2022/04/03 04:30:43;;;;;;;10.27;4.00;;;0.00;94.50;;;;;;7355725;19;109992;-91
2022/04/03 04:33:10;;;;;;;14.13;4.03;;;0.00;94.70;;;;;;7351064;19;110360;-92
2022/04/03 04:35:37;;;;;;;12.43;4.50;;;-0.10;94.70;;;;;;7349549;19;108376;-91
2022/04/03 04:38:05;;;;;;;8.57;3.77;;;-0.10;94.60;;;;;;7349807;19;109442;-91
2022/04/03 04:40:32;;;;;;;11.47;4.50;;;-0.10;94.50;;;;;;7350027;19;110220;-91
2022/04/03 04:42:59;;;;;;;11.80;3.90;;;-0.10;94.40;;;;;;7349902;19;110758;-92
2022/04/03 04:45:26;;;;;;;10.40;3.60;;;-0.10;94.50;;;;;;7349822;19;109373;-92
2022/04/03 04:48:00;;;;;;;9.97;3.60;;;-0.10;94.50;;;;;;7351621;19;109472;-91
2022/04/03 04:50:28;;;;;;;9.40;3.80;;;-0.10;94.60;;;;;;7356418;19;108294;-91
2022/04/03 04:52:58;;;;;;;5.90;2.90;;;-0.20;94.70;;;;;;7349431;19;110743;-91
2022/04/03 04:55:26;;;;;;;7.33;2.87;;;-0.20;94.70;;;;;;7350246;19;108503;-91
2022/04/03 04:57:55;;;;;;;5.63;2.87;;;-0.20;94.60;;;;;;7350082;19;109611;-91
2022/04/03 05:00:25;;;;;;;5.37;2.70;;;-0.30;94.70;;;;;;7348742;19;109228;-91
2022/04/03 05:02:52;;;;;;;7.90;3.30;;;-0.30;94.70;;;;;;7350022;19;110335;-91
2022/04/03 05:05:22;;;;;;;4.40;2.87;;;-0.30;94.80;;;;;;7348113;19;108664;-91
2022/04/03 05:07:53;;;;;;;6.40;2.80;;;-0.30;94.80;;;;;;7351565;19;109346;-91
2022/04/03 05:10:21;;;;;;;7.97;2.80;;;-0.30;94.80;;;;;;7350494;19;108369;-91
2022/04/03 05:12:48;;;;;;;4.43;2.53;;;-0.40;94.80;;;;;;7355938;19;109200;-91
2022/04/03 05:15:17;;;;;;;5.23;2.40;;;-0.40;94.90;;;;;;7349449;19;110103;-91
2022/04/03 05:17:45;;;;;;;4.90;2.70;;;-0.40;95.00;;;;;;7348097;19;108454;-91
2022/04/03 05:20:13;;;;;;;8.20;3.17;;;-0.40;95.00;;;;;;7348906;19;108413;-90
2022/04/03 05:22:41;;;;;;;4.90;2.73;;;-0.40;95.10;;;;;;7350138;19;108473;-91
2022/04/03 05:25:13;;;;;;;6.90;2.90;;;-0.50;95.10;;;;;;7348173;19;108534;-90
2022/04/03 05:27:41;;;;;;;4.33;2.50;;;-0.20;95.60;;;;;;7350407;19;110646;-90
2022/04/03 05:30:09;;;;;;;5.70;3.17;;;0.30;95.80;;;;;;7348599;19;108141;-91
2022/04/03 05:32:37;;;;;;;8.43;2.93;;;0.60;95.10;;;;;;7348470;19;108513;-91
2022/04/03 05:35:05;;;;;;;3.57;2.37;;;0.60;94.70;;;;;;7348352;19;109433;-91
2022/04/03 05:37:39;;;;;;;8.07;3.50;;;0.50;94.50;;;;;;7347925;19;108695;-91
2022/04/03 05:40:10;;;;;;;12.60;3.63;;;0.30;94.70;;;;;;7348922;19;109419;-91
2022/04/03 05:42:40;;;;;;;5.60;2.70;;;0.20;94.70;;;;;;7346648;19;109136;-92
2022/04/03 05:45:09;;;;;;;6.30;2.73;;;0.10;94.70;;;;;;7347909;19;109821;-91
2022/04/03 05:47:37;;;;;;;4.67;3.00;;;0.10;94.80;;;;;;7348351;19;110063;-91
2022/04/03 05:50:10;;;;;;;4.80;2.63;;;0.00;94.90;;;;;;7348596;19;108297;-92
2022/04/03 05:53:03;;;;;;;6.13;3.13;;;0.00;95.00;;;;;;7349578;19;108741;-92
2022/04/03 05:55:30;;;;;;;6.17;3.33;;;0.00;95.20;;;;;;7348263;19;109278;-92
2022/04/03 05:57:57;;;;;;;5.90;3.67;;;0.00;95.30;;;;;;7354296;19;108450;-92
2022/04/03 06:00:25;;;;;;;9.00;3.23;;;0.10;95.50;;;;;;7348774;19;112301;-92
2022/04/03 06:03:00;;;;;;;8.60;3.20;;;0.10;95.50;;;;;;7349505;19;110354;-92
2022/04/03 06:05:32;;;;;;;13.43;3.07;;;0.10;95.60;;;;;;7346103;19;109239;-93
2022/04/03 06:08:01;;;;;;;7.40;3.30;;;0.10;95.70;;;;;;7349923;19;109482;-93
2022/04/03 06:10:28;;;;;;;7.43;3.83;;;0.10;95.80;;;;;;7348552;19;110373;-93
2022/04/03 06:13:01;;;;;;;6.53;3.37;;;0.20;95.80;;;;;;7350314;19;108327;-93
2022/04/03 06:15:33;;;;;;;10.77;3.00;;;0.30;96.60;;;;;;7349547;19;109376;-93
2022/04/03 06:18:02;;;;;;;8.20;3.33;;;0.30;96.40;;;;;;7349195;19;109397;-92
2022/04/03 06:20:29;;;;;;;6.90;3.30;;;0.30;96.70;;;;;;7354285;19;108290;-93
2022/04/03 06:22:56;;;;;;;8.27;3.27;;;0.40;96.80;;;;;;7350278;19;108643;-94
2022/04/03 06:25:23;;;;;;;9.60;3.20;;;0.50;96.90;;;;;;7348239;19;112007;-93
2022/04/03 06:27:54;;;;;;;5.47;2.97;;;0.60;96.90;;;;;;7348872;19;113993;-94
2022/04/03 06:30:22;;;;;;;4.20;3.40;;;0.70;97.30;;;;;;7349093;19;108354;-94
2022/04/03 06:32:49;;;;;;;7.67;3.23;;;0.70;97.20;;;;;;7348758;19;108747;-94
2022/04/03 06:35:16;;;;;;;5.17;3.63;;;0.80;97.20;;;;;;7349412;19;109347;-94
2022/04/03 06:37:43;;;;;;;5.30;3.30;;;0.90;97.50;;;;;;7347462;19;108506;-94
2022/04/03 06:40:11;;;;;;;6.10;3.40;;;1.00;97.80;;;;;;7349281;19;110592;-94
2022/04/03 06:42:38;;;;;;;11.97;3.60;;;1.10;98.10;;;;;;7350223;19;108161;-94
2022/04/03 06:45:06;;;;;;;11.80;3.83;;;1.20;98.10;;;;;;7348015;19;110784;-94
2022/04/03 06:47:34;;;;;;;14.00;4.07;;;1.30;98.40;;;;;;7346843;19;110525;-94
2022/04/03 06:50:03;;;;;;;11.53;5.37;;;1.40;98.60;;;;;;7348242;19;108064;-93
2022/04/03 06:52:30;;;;;;;8.57;4.83;;;1.50;98.60;;;;;;7344880;19;108505;-94
2022/04/03 06:54:57;;;;;;;7.07;4.57;;;1.60;98.60;;;;;;7347960;19;109222;-94
2022/04/03 06:57:24;;;;;;;7.97;4.47;;;1.70;98.80;;;;;;7349004;19;109167;-95
2022/04/03 06:59:51;;;;;;;11.23;4.90;;;1.80;98.70;;;;;;7348689;19;108967;-93
2022/04/03 07:02:18;;;;;;;8.47;4.17;;;1.90;98.80;;;;;;7352982;19;110403;-94
2022/04/03 07:04:45;;;;;;;29.37;5.10;;;2.00;99.10;;;;;;7345740;19;111463;-94
2022/04/03 07:07:24;;;;;;;20.97;4.47;;;2.20;99.20;;;;;;7349224;19;109706;-94
2022/04/03 07:09:52;;;;;;;10.53;4.43;;;2.30;99.30;;;;;;7348292;19;108479;-94
2022/04/03 07:12:20;;;;;;;10.47;4.87;;;2.40;99.40;;;;;;7345211;19;108570;-90
2022/04/03 07:14:48;;;;;;;8.73;4.90;;;2.60;99.30;;;;;;7362442;19;109507;-94
2022/04/03 07:17:16;;;;;;;8.90;4.50;;;2.60;99.40;;;;;;7351852;19;108361;-93
2022/04/03 07:19:44;;;;;;;10.13;5.07;;;2.80;99.40;;;;;;7351515;19;109315;-94
2022/04/03 07:22:11;;;;;;;9.80;5.10;;;2.90;99.70;;;;;;7350972;19;110538;-92
2022/04/03 07:24:38;;;;;;;8.80;4.57;;;3.10;99.90;;;;;;7354526;19;108982;-92
2022/04/03 07:27:06;;;;;;;7.47;4.73;;;3.20;99.90;;;;;;7344717;19;108529;-92
2022/04/03 07:29:33;;;;;;;9.23;5.03;;;3.40;99.90;;;;;;7346729;19;108062;-92
2022/04/03 07:32:03;;;;;;;11.67;5.67;;;3.60;99.90;;;;;;7345848;19;110968;-95
2022/04/03 07:34:30;;;;;;;10.73;4.70;;;3.70;99.90;;;;;;7345213;19;111603;-94
2022/04/03 07:36:57;;;;;;;10.13;4.57;;;3.90;99.90;;;;;;7346152;19;110726;-93
2022/04/03 07:39:26;;;;;;;9.17;4.80;;;4.00;99.90;;;;;;7345677;19;108608;-94
2022/04/03 07:41:53;;;;;;;8.13;4.03;;;4.10;99.90;;;;;;7350269;19;109241;-95
2022/04/03 07:44:20;;;;;;;7.77;4.30;;;4.20;99.90;;;;;;7353352;19;108377;-95
2022/04/03 07:46:48;;;;;;;8.70;3.83;;;4.40;99.90;;;;;;7356582;19;110553;-95
2022/04/03 07:49:21;;;;;;;9.63;4.10;;;4.60;99.90;;;;;;7346319;19;109341;-95
2022/04/03 07:51:49;;;;;;;5.40;3.20;;;4.70;99.90;;;;;;7352480;19;108291;-96
2022/04/03 07:54:16;;;;;;;4.90;2.60;;;4.90;99.80;;;;;;7352933;19;108532;-96
2022/04/03 07:56:46;;;;;;;5.00;2.23;;;5.00;99.30;;;;;;7352644;19;108061;-95
2022/04/03 07:59:13;;;;;;;3.73;2.23;;;5.20;99.00;;;;;;7359074;19;108690;-95
2022/04/03 08:01:41;;;;;;;4.70;2.23;;;5.30;98.70;;;;;;7361220;19;110531;-95
2022/04/03 08:04:10;;;;;;;5.93;2.03;;;5.40;98.20;;;;;;7370729;19;108194;-94
2022/04/03 08:06:40;;;;;;;3.10;2.10;;;5.40;98.20;;;;;;7378133;19;108354;-96
2022/04/03 08:09:20;;;;;;;6.13;2.07;;;5.40;97.60;;;;;;7376107;19;109157;-96
2022/04/03 08:11:47;;;;;;;2.03;0.90;;;5.50;97.70;;;;;;7365349;19;108824;-95
2022/04/03 08:14:15;;;;;;;2.97;1.17;;;5.60;96.20;;;;;;7365757;19;112212;-96
2022/04/03 08:16:42;;;;;;;5.23;1.20;;;5.70;96.50;;;;;;7366772;19;109170;-96
2022/04/03 08:19:09;;;;;;;2.73;1.10;;;5.70;95.90;;;;;;7370145;19;109597;-90
2022/04/03 08:21:37;;;;;;;3.80;1.10;;;5.80;96.20;;;;;;7356999;19;109975;-88
2022/04/03 08:24:05;;;;;;;6.47;0.83;;;5.90;95.90;;;;;;7355876;19;109049;-91
2022/04/03 08:26:32;;;;;;;2.20;1.03;;;6.00;96.10;;;;;;7355237;19;108764;-87
2022/04/03 08:28:59;;;;;;;5.20;1.20;;;6.20;95.20;;;;;;7354350;19;113334;-90
2022/04/03 08:31:27;;;;;;;5.63;1.13;;;6.20;95.10;;;;;;7356682;19;110162;-89
2022/04/03 08:33:55;;;;;;;4.43;1.27;;;6.30;95.70;;;;;;7355292;19;111749;-89
2022/04/03 08:36:22;;;;;;;3.90;1.10;;;6.50;95.50;;;;;;7346146;19;108687;-91
2022/04/03 08:38:50;;;;;;;3.23;1.30;;;6.60;95.50;;;;;;7346691;19;110825;-91
2022/04/03 08:41:17;;;;;;;3.30;1.10;;;6.70;95.10;;;;;;7344678;19;110224;-89
2022/04/03 08:43:47;;;;;;;3.77;1.30;;;6.90;95.00;;;;;;7342157;19;108988;-89
2022/04/03 08:46:16;;;;;;;4.27;1.00;;;6.90;94.80;;;;;;7353887;19;108848;-91
2022/04/03 08:48:45;;;;;;;3.87;1.10;;;7.00;94.90;;;;;;7345665;19;112979;-91
2022/04/03 08:51:12;;;;;;;2.97;0.93;;;7.10;94.50;;;;;;7351046;19;109902;-91
2022/04/03 08:53:39;;;;;;;6.70;1.20;;;7.20;94.40;;;;;;7362783;19;109184;-89
2022/04/03 08:56:06;;;;;;;2.67;0.93;;;7.30;93.90;;;;;;7356506;19;108145;-90
2022/04/03 08:58:34;;;;;;;3.47;1.00;;;7.20;93.30;;;;;;7352442;19;108567;-91
2022/04/03 09:01:01;;;;;;;2.90;1.03;;;7.30;93.20;;;;;;7354944;19;110238;-93
2022/04/03 09:03:28;;;;;;;2.17;0.80;;;7.40;94.00;;;;;;7356076;19;109567;-90
2022/04/03 09:06:14;;;;;;;1.27;0.90;;;7.60;93.10;;;;;;7356167;19;108419;-91
2022/04/03 09:08:42;;;;;;;3.50;0.93;;;7.70;92.50;;;;;;7355103;19;109179;-91
2022/04/03 09:11:10;;;;;;;4.00;1.10;;;7.80;93.10;;;;;;7348343;19;108444;-91
2022/04/03 09:13:39;;;;;;;3.07;0.97;;;7.90;92.00;;;;;;7352219;19;110567;-89
2022/04/03 09:16:07;;;;;;;3.15;1.15;;;7.80;91.60;;;;;;7349452;19;109392;-89
2022/04/03 09:18:48;;;;;;;3.03;0.93;;;7.80;91.40;;;;;;7345013;19;110499;-90
2022/04/03 09:21:24;;;;;;;2.70;1.30;;;7.90;91.60;;;;;;7346816;19;109926;-88
2022/04/03 09:24:07;;;;;;;3.07;1.00;;;7.90;91.40;;;;;;7348476;19;109754;-88
2022/04/03 09:26:35;;;;;;;1.33;1.00;;;8.00;91.10;;;;;;7347445;19;110380;-88
2022/04/03 09:29:17;;;;;;;3.43;1.30;;;8.00;90.90;;;;;;7344617;19;109838;-87
2022/04/03 09:31:46;;;;;;;3.13;1.27;;;8.10;91.10;;;;;;7345005;19;110111;-87
2022/04/03 09:34:25;;;;;;;3.27;1.10;;;8.10;90.50;;;;;;7344317;19;109517;-88
2022/04/03 09:37:00;;;;;;;2.28;1.02;;;8.20;90.70;;;;;;7353801;19;110468;-90
2022/04/03 09:39:29;;;;;;;2.25;1.15;;;8.20;87.50;;;;;;7343695;19;109476;-89
2022/04/03 09:42:15;;;;;;;4.18;1.00;;;8.20;86.70;;;;;;7346861;19;112857;-89
2022/04/03 09:44:44;;;;;;;1.33;0.75;;;8.20;86.50;;;;;;7344933;19;108822;-86
2022/04/03 09:47:15;;;;;;;2.63;1.20;;;8.30;87.60;;;;;;7344945;19;109223;-90
2022/04/03 09:49:50;;;;;;;6.00;0.95;;;8.40;87.60;;;;;;7344906;19;109605;-89
2022/04/03 09:52:47;;;;;;;2.90;1.00;;;8.50;85.70;;;;;;7346884;19;109091;-88
2022/04/03 09:55:17;;;;;;;3.67;1.48;;;8.50;84.50;;;;;;7345112;19;112181;-90
2022/04/03 09:58:01;;;;;;;2.70;1.40;;;8.50;86.50;;;;;;7347443;19;109211;-89
2022/04/03 10:00:45;;;;;;;3.10;1.20;;;8.60;87.10;;;;;;7353526;19;108318;-91
2022/04/03 10:03:13;;;;;;;1.83;0.75;;;8.90;88.30;;;;;;7342942;19;109200;-88
2022/04/03 10:05:42;;;;;;;2.95;1.20;;;9.10;86.50;;;;;;7346024;19;108600;-89
2022/04/03 10:08:10;;;;;;;2.05;0.75;;;9.00;79.90;;;;;;7342375;19;109289;-88
2022/04/03 10:10:38;;;;;;;1.95;0.80;;;9.00;82.30;;;;;;7342327;19;110998;-86
2022/04/03 10:13:06;;;;;;;3.70;1.10;;;9.20;82.00;;;;;;7340236;19;109702;-85
2022/04/03 10:15:34;;;;;;;1.98;0.73;;;9.10;80.00;;;;;;7342179;19;109654;-86
2022/04/03 10:18:02;;;;;;;1.40;0.70;;;9.00;81.20;;;;;;7341652;19;111297;-88
2022/04/03 10:20:29;;;;;;;12.20;1.15;;;9.10;81.30;;;;;;7342281;19;108796;-89
2022/04/03 10:23:00;;;;;;;5.60;1.23;;;9.30;84.10;;;;;;7346265;19;111232;-89
2022/04/03 10:25:37;;;;;;;2.58;1.10;;;9.60;83.00;;;;;;7344786;19;110714;-88
2022/04/03 10:28:06;;;;;;;1.20;0.80;;;9.80;84.10;;;;;;7339435;19;108595;-86
2022/04/03 10:30:43;;;;;;;2.70;0.98;;;9.90;80.60;;;;;;7340023;19;110224;-87
2022/04/03 10:33:19;;;;;;;29.33;1.60;;;9.90;82.10;;;;;;7337200;19;109293;-87
2022/04/03 10:35:49;;;;;;;1.27;0.70;;;10.10;81.70;;;;;;7342940;19;112402;-87
2022/04/03 10:38:18;;;;;;;2.63;0.90;;;10.10;79.00;;;;;;7341766;19;110162;-85
2022/04/03 10:40:59;;;;;;;1.55;0.70;;;10.20;78.50;;;;;;7339847;19;110977;-89
2022/04/03 10:43:29;;;;;;;5.45;1.23;;;10.30;78.00;;;;;;7339552;19;112230;-87
2022/04/03 10:45:57;;;;;;;7.95;1.02;;;10.30;79.10;;;;;;7345436;19;112070;-87
2022/04/03 10:48:31;;;;;;;2.40;0.85;;;10.40;77.80;;;;;;7342508;19;111263;-88
2022/04/03 10:51:01;;;;;;;0.77;0.55;;;10.40;77.70;;;;;;7341265;19;111785;-87
2022/04/03 10:53:47;;;;;;;1.98;0.82;;;10.60;79.10;;;;;;7339138;19;108303;-88
2022/04/03 10:56:25;;;;;;;3.15;0.90;;;10.60;78.30;;;;;;7341909;19;108354;-87
2022/04/03 10:58:54;;;;;;;13.00;1.05;;;10.70;75.00;;;;;;7340814;19;110196;-87
2022/04/03 11:01:33;;;;;;;2.10;0.65;;;10.60;76.40;;;;;;7338610;19;109227;-82
2022/04/03 11:04:11;;;;;;;1.42;0.63;;;10.70;73.10;;;;;;7339377;19;109547;-82
2022/04/03 11:06:40;;;;;;;2.08;0.88;;;10.80;72.00;;;;;;7340630;19;109772;-81
2022/04/03 11:09:10;;;;;;;1.75;0.80;;;10.80;71.60;;;;;;7346648;19;109399;-81
2022/04/03 11:11:38;;;;;;;3.85;0.70;;;10.90;72.70;;;;;;7338578;19;110449;-82
2022/04/03 11:14:07;;;;;;;2.15;0.70;;;11.00;71.10;;;;;;7336880;19;110757;-82
2022/04/03 11:16:55;;;;;;;3.13;0.80;;;10.90;69.50;;;;;;7339638;19;109187;-82
2022/04/03 11:19:43;;;;;;;2.33;0.70;;;11.00;70.10;;;;;;7337724;19;110758;-81
2022/04/03 11:22:17;;;;;;;1.65;0.90;;;11.10;66.60;;;;;;7336342;19;108219;-82
2022/04/03 11:24:45;;;;;;;1.13;0.57;;;10.90;69.60;;;;;;7337761;19;109521;-81
2022/04/03 11:27:13;;;;;;;1.50;0.70;;;10.90;69.80;;;;;;7339267;19;109507;-80
2022/04/03 11:29:40;;;;;;;1.63;0.75;;;11.00;70.30;;;;;;7341535;19;108389;-80
2022/04/03 11:32:08;;;;;;;1.92;0.55;;;11.20;69.30;;;;;;7338059;19;110108;-82
2022/04/03 11:34:36;;;;;;;1.63;0.80;;;11.20;68.50;;;;;;7336935;19;108735;-81
2022/04/03 11:37:05;;;;;;;1.08;0.65;;;11.20;68.60;;;;;;7338418;19;110183;-81
2022/04/03 11:39:35;;;;;;;2.78;0.68;;;11.20;67.90;;;;;;7339478;19;109223;-84
2022/04/03 11:42:09;;;;;;;1.17;0.60;;;11.30;67.50;;;;;;7338869;19;109545;-86
2022/04/03 11:44:37;;;;;;;1.20;0.60;;;11.30;68.00;;;;;;7335856;19;109596;-86
2022/04/03 11:47:21;;;;;;;1.15;0.77;;;11.20;67.60;;;;;;7338920;19;110731;-88
2022/04/03 11:50:04;;;;;;;2.70;0.63;;;11.10;68.70;;;;;;7330976;19;109400;-88
2022/04/03 11:52:35;;;;;;;1.73;0.60;;;11.10;69.10;;;;;;7337608;19;110074;-88
2022/04/03 11:55:11;;;;;;;1.13;0.57;;;11.10;68.30;;;;;;7336079;19;109001;-88
2022/04/03 11:57:39;;;;;;;1.75;0.60;;;11.20;68.40;;;;;;7339793;19;112084;-93
2022/04/03 12:00:09;;;;;;;3.83;0.70;;;11.20;67.00;;;;;;7341386;19;110103;-88
2022/04/03 12:02:37;;;;;;;3.05;0.68;;;11.20;67.00;;;;;;7338647;19;108330;-88
2022/04/03 12:05:05;;;;;;;1.38;0.80;;;11.20;67.70;;;;;;7337604;19;109897;-87
2022/04/03 12:07:33;;;;;;;1.88;0.90;;;11.20;68.00;;;;;;7338428;19;110652;-86
2022/04/03 12:10:00;;;;;;;3.47;0.70;;;11.20;67.70;;;;;;7338785;19;108324;-86
2022/04/03 12:12:27;;;;;;;4.53;0.60;;;11.20;68.00;;;;;;7339850;19;112256;-87
2022/04/03 12:14:54;;;;;;;1.38;0.70;;;11.20;66.70;;;;;;7343232;19;109585;-86
2022/04/03 12:17:21;;;;;;;1.45;0.57;;;11.10;67.90;;;;;;7338133;19;108866;-82
2022/04/03 12:19:49;;;;;;;5.45;0.60;;;11.20;68.10;;;;;;7335628;19;111666;-86
2022/04/03 12:22:19;;;;;;;1.60;0.85;;;11.10;67.50;;;;;;7338493;19;110538;-84
2022/04/03 12:24:49;;;;;;;1.67;0.70;;;10.90;68.50;;;;;;7336871;19;111644;-85
2022/04/03 12:27:22;;;;;;;1.48;0.70;;;11.00;69.70;;;;;;7339977;19;112331;-85
2022/04/03 12:29:54;;;;;;;2.47;0.80;;;11.00;69.60;;;;;;7335147;19;108934;-85
2022/04/03 12:32:35;;;;;;;2.13;0.70;;;11.00;69.90;;;;;;7334870;19;110442;-88
2022/04/03 12:35:07;;;;;;;2.85;0.60;;;11.00;69.00;;;;;;7338387;19;110317;-89
2022/04/03 12:37:35;;;;;;;0.80;0.57;;;10.90;69.60;;;;;;7341739;19;109379;-88
2022/04/03 12:40:06;;;;;;;1.65;0.70;;;11.00;70.70;;;;;;7338964;19;110535;-89
2022/04/03 12:42:44;;;;;;;2.72;0.70;;;11.00;69.50;;;;;;7339073;19;108742;-88
2022/04/03 12:45:21;;;;;;;7.22;1.30;;;10.80;70.00;;;;;;7338437;19;109778;-90
2022/04/03 12:47:50;;;;;;;1.25;0.85;;;10.80;71.10;;;;;;7345585;19;109568;-88
2022/04/03 12:50:23;;;;;;;2.20;0.90;;;10.70;72.60;;;;;;7345497;19;108701;-88
2022/04/03 12:52:58;;;;;;;4.30;0.93;;;10.70;73.40;;;;;;7343764;19;109749;-88
2022/04/03 12:55:28;;;;;;;2.90;1.20;;;10.60;74.20;;;;;;7344900;19;110359;-88